sensor_id;sensor_type;location;lat;lon;timestamp;P1;durP1;ratioP1;P2;durP2;ratioP2
27163;SDS011;14685;50.618;7.024;2022-11-20T00:01:31;40.50;;;24.15;;
27163;SDS011;14685;50.618;7.024;2022-11-20T00:03:58;38.67;;;23.38;;
27163;SDS011;14685;50.618;7.024;2022-11-20T00:06:26;37.42;;;22.80;;
27163;SDS011;14685;50.618;7.024;2022-11-20T00:08:55;38.60;;;23.65;;
27163;SDS011;14685;50.618;7.024;2022-11-20T00:11:24;36.95;;;22.65;;
27163;SDS011;14685;50.618;7.024;2022-11-20T00:13:55;43.45;;;24.90;;
27163;SDS011;14685;50.618;7.024;2022-11-20T00:16:23;40.08;;;23.80;;
27163;SDS011;14685;50.618;7.024;2022-11-20T00:18:52;39.22;;;23.60;;
27163;SDS011;14685;50.618;7.024;2022-11-20T00:21:23;38.78;;;22.80;;
27163;SDS011;14685;50.618;7.024;2022-11-20T00:23:53;37.65;;;23.38;;
27163;SDS011;14685;50.618;7.024;2022-11-20T00:26:23;37.72;;;24.20;;
27163;SDS011;14685;50.618;7.024;2022-11-20T00:28:52;53.53;;;24.15;;
27163;SDS011;14685;50.618;7.024;2022-11-20T00:31:23;39.63;;;24.10;;
27163;SDS011;14685;50.618;7.024;2022-11-20T00:33:51;39.45;;;23.35;;
27163;SDS011;14685;50.618;7.024;2022-11-20T00:36:19;39.42;;;23.60;;
27163;SDS011;14685;50.618;7.024;2022-11-20T00:38:50;42.17;;;23.30;;
27163;SDS011;14685;50.618;7.024;2022-11-20T00:43:49;38.92;;;22.77;;
27163;SDS011;14685;50.618;7.024;2022-11-20T00:46:19;35.38;;;22.73;;
27163;SDS011;14685;50.618;7.024;2022-11-20T00:48:48;38.28;;;23.27;;
27163;SDS011;14685;50.618;7.024;2022-11-20T00:51:16;44.20;;;24.58;;
27163;SDS011;14685;50.618;7.024;2022-11-20T00:53:46;37.75;;;22.10;;
27163;SDS011;14685;50.618;7.024;2022-11-20T00:56:14;36.20;;;22.95;;
27163;SDS011;14685;50.618;7.024;2022-11-20T00:58:43;42.20;;;24.50;;
27163;SDS011;14685;50.618;7.024;2022-11-20T01:06:14;40.80;;;22.92;;
27163;SDS011;14685;50.618;7.024;2022-11-20T01:08:53;38.42;;;23.10;;
27163;SDS011;14685;50.618;7.024;2022-11-20T01:11:32;41.05;;;24.02;;
27163;SDS011;14685;50.618;7.024;2022-11-20T01:14:05;38.53;;;24.58;;
27163;SDS011;14685;50.618;7.024;2022-11-20T01:16:35;37.65;;;22.83;;
27163;SDS011;14685;50.618;7.024;2022-11-20T01:19:05;39.40;;;23.08;;
27163;SDS011;14685;50.618;7.024;2022-11-20T01:21:35;37.35;;;23.05;;
27163;SDS011;14685;50.618;7.024;2022-11-20T01:24:04;38.05;;;22.83;;
27163;SDS011;14685;50.618;7.024;2022-11-20T01:26:37;36.40;;;22.70;;
27163;SDS011;14685;50.618;7.024;2022-11-20T01:29:07;38.42;;;24.10;;
27163;SDS011;14685;50.618;7.024;2022-11-20T01:31:38;38.58;;;23.90;;
27163;SDS011;14685;50.618;7.024;2022-11-20T01:34:15;36.70;;;23.08;;
27163;SDS011;14685;50.618;7.024;2022-11-20T01:36:43;34.92;;;22.90;;
27163;SDS011;14685;50.618;7.024;2022-11-20T01:39:12;40.47;;;24.58;;
27163;SDS011;14685;50.618;7.024;2022-11-20T01:41:41;38.70;;;22.38;;
27163;SDS011;14685;50.618;7.024;2022-11-20T01:47:20;29.35;;;17.42;;
27163;SDS011;14685;50.618;7.024;2022-11-20T01:50:21;38.45;;;23.90;;
27163;SDS011;14685;50.618;7.024;2022-11-20T01:52:52;39.40;;;23.15;;
27163;SDS011;14685;50.618;7.024;2022-11-20T01:55:26;40.35;;;23.08;;
27163;SDS011;14685;50.618;7.024;2022-11-20T01:57:57;40.35;;;23.60;;
27163;SDS011;14685;50.618;7.024;2022-11-20T02:00:25;37.67;;;22.90;;
27163;SDS011;14685;50.618;7.024;2022-11-20T02:02:57;38.10;;;23.77;;
27163;SDS011;14685;50.618;7.024;2022-11-20T02:08:05;40.35;;;23.85;;
27163;SDS011;14685;50.618;7.024;2022-11-20T02:10:34;39.55;;;23.00;;
27163;SDS011;14685;50.618;7.024;2022-11-20T02:13:01;39.33;;;23.45;;
27163;SDS011;14685;50.618;7.024;2022-11-20T02:15:48;37.60;;;23.35;;
27163;SDS011;14685;50.618;7.024;2022-11-20T02:18:16;40.67;;;24.25;;
27163;SDS011;14685;50.618;7.024;2022-11-20T02:20:46;36.00;;;21.92;;
27163;SDS011;14685;50.618;7.024;2022-11-20T02:23:21;37.60;;;23.63;;
27163;SDS011;14685;50.618;7.024;2022-11-20T02:25:52;41.35;;;23.95;;
27163;SDS011;14685;50.618;7.024;2022-11-20T02:28:19;42.95;;;24.02;;
27163;SDS011;14685;50.618;7.024;2022-11-20T02:30:47;41.92;;;24.75;;
27163;SDS011;14685;50.618;7.024;2022-11-20T02:33:14;43.17;;;24.48;;
27163;SDS011;14685;50.618;7.024;2022-11-20T02:35:43;43.47;;;23.65;;
27163;SDS011;14685;50.618;7.024;2022-11-20T02:38:13;42.83;;;24.65;;
27163;SDS011;14685;50.618;7.024;2022-11-20T02:40:41;42.70;;;23.52;;
27163;SDS011;14685;50.618;7.024;2022-11-20T02:43:08;42.65;;;23.70;;
27163;SDS011;14685;50.618;7.024;2022-11-20T02:45:35;42.97;;;25.20;;
27163;SDS011;14685;50.618;7.024;2022-11-20T02:48:02;41.88;;;24.17;;
27163;SDS011;14685;50.618;7.024;2022-11-20T02:50:29;43.75;;;24.80;;
27163;SDS011;14685;50.618;7.024;2022-11-20T02:52:56;42.72;;;24.38;;
27163;SDS011;14685;50.618;7.024;2022-11-20T02:55:23;42.47;;;23.98;;
27163;SDS011;14685;50.618;7.024;2022-11-20T02:57:50;43.50;;;24.10;;
27163;SDS011;14685;50.618;7.024;2022-11-20T03:00:17;42.05;;;24.08;;
27163;SDS011;14685;50.618;7.024;2022-11-20T03:02:44;46.17;;;25.38;;
27163;SDS011;14685;50.618;7.024;2022-11-20T03:05:11;46.53;;;25.50;;
27163;SDS011;14685;50.618;7.024;2022-11-20T03:07:38;46.55;;;25.35;;
27163;SDS011;14685;50.618;7.024;2022-11-20T03:10:05;45.15;;;24.05;;
27163;SDS011;14685;50.618;7.024;2022-11-20T03:12:35;45.22;;;25.65;;
27163;SDS011;14685;50.618;7.024;2022-11-20T03:15:02;48.35;;;27.10;;
27163;SDS011;14685;50.618;7.024;2022-11-20T03:17:31;43.28;;;25.50;;
27163;SDS011;14685;50.618;7.024;2022-11-20T03:19:59;47.33;;;27.20;;
27163;SDS011;14685;50.618;7.024;2022-11-20T03:22:28;46.53;;;25.70;;
27163;SDS011;14685;50.618;7.024;2022-11-20T03:24:56;49.20;;;26.25;;
27163;SDS011;14685;50.618;7.024;2022-11-20T03:27:23;46.00;;;26.58;;
27163;SDS011;14685;50.618;7.024;2022-11-20T03:29:49;49.30;;;26.30;;
27163;SDS011;14685;50.618;7.024;2022-11-20T03:32:19;52.97;;;27.30;;
27163;SDS011;14685;50.618;7.024;2022-11-20T03:34:46;55.60;;;28.00;;
27163;SDS011;14685;50.618;7.024;2022-11-20T03:37:13;54.88;;;28.23;;
27163;SDS011;14685;50.618;7.024;2022-11-20T03:39:40;52.45;;;27.77;;
27163;SDS011;14685;50.618;7.024;2022-11-20T03:42:07;56.75;;;28.75;;
27163;SDS011;14685;50.618;7.024;2022-11-20T03:44:55;54.13;;;29.52;;
27163;SDS011;14685;50.618;7.024;2022-11-20T03:47:22;57.95;;;30.48;;
27163;SDS011;14685;50.618;7.024;2022-11-20T03:49:49;58.33;;;30.42;;
27163;SDS011;14685;50.618;7.024;2022-11-20T03:52:16;58.08;;;29.58;;
27163;SDS011;14685;50.618;7.024;2022-11-20T03:54:43;52.88;;;28.35;;
27163;SDS011;14685;50.618;7.024;2022-11-20T03:57:10;53.78;;;28.38;;
27163;SDS011;14685;50.618;7.024;2022-11-20T03:59:37;55.90;;;29.45;;
27163;SDS011;14685;50.618;7.024;2022-11-20T04:02:03;52.38;;;27.98;;
27163;SDS011;14685;50.618;7.024;2022-11-20T04:04:30;57.38;;;30.08;;
27163;SDS011;14685;50.618;7.024;2022-11-20T04:06:57;54.60;;;29.55;;
27163;SDS011;14685;50.618;7.024;2022-11-20T04:09:24;55.40;;;29.38;;
27163;SDS011;14685;50.618;7.024;2022-11-20T04:11:51;51.03;;;27.27;;
27163;SDS011;14685;50.618;7.024;2022-11-20T04:14:18;56.40;;;30.08;;
27163;SDS011;14685;50.618;7.024;2022-11-20T04:16:45;50.75;;;28.70;;
27163;SDS011;14685;50.618;7.024;2022-11-20T04:19:13;52.42;;;27.75;;
27163;SDS011;14685;50.618;7.024;2022-11-20T04:21:41;53.60;;;28.50;;
27163;SDS011;14685;50.618;7.024;2022-11-20T04:24:10;61.88;;;29.17;;
27163;SDS011;14685;50.618;7.024;2022-11-20T04:26:39;61.67;;;30.38;;
27163;SDS011;14685;50.618;7.024;2022-11-20T04:29:06;60.03;;;30.13;;
27163;SDS011;14685;50.618;7.024;2022-11-20T04:31:34;55.80;;;29.40;;
27163;SDS011;14685;50.618;7.024;2022-11-20T04:34:02;58.88;;;31.05;;
27163;SDS011;14685;50.618;7.024;2022-11-20T04:36:31;64.72;;;32.10;;
27163;SDS011;14685;50.618;7.024;2022-11-20T04:38:59;62.72;;;32.15;;
27163;SDS011;14685;50.618;7.024;2022-11-20T04:41:30;64.97;;;33.33;;
27163;SDS011;14685;50.618;7.024;2022-11-20T04:43:59;66.03;;;32.22;;
27163;SDS011;14685;50.618;7.024;2022-11-20T04:46:34;62.25;;;32.20;;
27163;SDS011;14685;50.618;7.024;2022-11-20T04:51:29;58.92;;;29.17;;
27163;SDS011;14685;50.618;7.024;2022-11-20T04:53:56;60.78;;;29.17;;
27163;SDS011;14685;50.618;7.024;2022-11-20T04:56:23;62.67;;;30.80;;
27163;SDS011;14685;50.618;7.024;2022-11-20T04:58:52;66.95;;;31.88;;
27163;SDS011;14685;50.618;7.024;2022-11-20T05:01:22;61.78;;;31.63;;
27163;SDS011;14685;50.618;7.024;2022-11-20T05:03:50;62.60;;;31.45;;
27163;SDS011;14685;50.618;7.024;2022-11-20T05:06:19;65.72;;;32.42;;
27163;SDS011;14685;50.618;7.024;2022-11-20T05:08:47;62.63;;;31.38;;
27163;SDS011;14685;50.618;7.024;2022-11-20T05:11:17;64.97;;;32.17;;
27163;SDS011;14685;50.618;7.024;2022-11-20T05:13:46;62.35;;;31.13;;
27163;SDS011;14685;50.618;7.024;2022-11-20T05:16:15;66.68;;;32.50;;
27163;SDS011;14685;50.618;7.024;2022-11-20T05:18:44;64.30;;;32.00;;
27163;SDS011;14685;50.618;7.024;2022-11-20T05:21:12;68.78;;;32.10;;
27163;SDS011;14685;50.618;7.024;2022-11-20T05:23:39;71.07;;;34.10;;
27163;SDS011;14685;50.618;7.024;2022-11-20T05:26:07;70.85;;;33.58;;
27163;SDS011;14685;50.618;7.024;2022-11-20T05:28:38;71.70;;;33.80;;
27163;SDS011;14685;50.618;7.024;2022-11-20T05:31:09;70.95;;;33.58;;
27163;SDS011;14685;50.618;7.024;2022-11-20T05:33:41;61.60;;;31.23;;
27163;SDS011;14685;50.618;7.024;2022-11-20T05:36:10;66.28;;;31.63;;
27163;SDS011;14685;50.618;7.024;2022-11-20T05:38:38;63.13;;;30.85;;
27163;SDS011;14685;50.618;7.024;2022-11-20T05:41:10;64.05;;;32.20;;
27163;SDS011;14685;50.618;7.024;2022-11-20T05:43:38;65.20;;;31.73;;
27163;SDS011;14685;50.618;7.024;2022-11-20T05:46:07;67.40;;;31.30;;
27163;SDS011;14685;50.618;7.024;2022-11-20T05:48:36;64.65;;;31.17;;
27163;SDS011;14685;50.618;7.024;2022-11-20T05:51:05;60.95;;;29.73;;
27163;SDS011;14685;50.618;7.024;2022-11-20T05:53:35;64.05;;;32.45;;
27163;SDS011;14685;50.618;7.024;2022-11-20T05:56:06;63.67;;;30.63;;
27163;SDS011;14685;50.618;7.024;2022-11-20T05:58:36;59.30;;;29.60;;
27163;SDS011;14685;50.618;7.024;2022-11-20T06:01:13;58.63;;;30.35;;
27163;SDS011;14685;50.618;7.024;2022-11-20T06:03:43;65.95;;;31.58;;
27163;SDS011;14685;50.618;7.024;2022-11-20T06:06:14;64.90;;;32.65;;
27163;SDS011;14685;50.618;7.024;2022-11-20T06:08:42;62.60;;;30.58;;
27163;SDS011;14685;50.618;7.024;2022-11-20T06:11:11;63.35;;;32.45;;
27163;SDS011;14685;50.618;7.024;2022-11-20T06:13:39;54.40;;;29.25;;
27163;SDS011;14685;50.618;7.024;2022-11-20T06:16:08;62.67;;;31.35;;
27163;SDS011;14685;50.618;7.024;2022-11-20T06:18:36;57.25;;;29.92;;
27163;SDS011;14685;50.618;7.024;2022-11-20T06:21:05;61.08;;;31.35;;
27163;SDS011;14685;50.618;7.024;2022-11-20T06:23:33;54.10;;;27.88;;
27163;SDS011;14685;50.618;7.024;2022-11-20T06:26:01;65.63;;;31.63;;
27163;SDS011;14685;50.618;7.024;2022-11-20T06:28:29;64.93;;;31.52;;
27163;SDS011;14685;50.618;7.024;2022-11-20T06:30:57;63.83;;;30.27;;
27163;SDS011;14685;50.618;7.024;2022-11-20T06:33:24;58.97;;;29.05;;
27163;SDS011;14685;50.618;7.024;2022-11-20T06:35:51;60.80;;;30.63;;
27163;SDS011;14685;50.618;7.024;2022-11-20T06:38:25;48.15;;;22.55;;
27163;SDS011;14685;50.618;7.024;2022-11-20T06:40:53;62.20;;;31.15;;
27163;SDS011;14685;50.618;7.024;2022-11-20T06:43:21;63.83;;;31.15;;
27163;SDS011;14685;50.618;7.024;2022-11-20T06:45:55;61.75;;;31.98;;
27163;SDS011;14685;50.618;7.024;2022-11-20T06:48:25;66.03;;;31.70;;
27163;SDS011;14685;50.618;7.024;2022-11-20T06:50:52;63.95;;;30.73;;
27163;SDS011;14685;50.618;7.024;2022-11-20T06:53:19;70.05;;;33.63;;
27163;SDS011;14685;50.618;7.024;2022-11-20T06:55:48;60.67;;;30.55;;
27163;SDS011;14685;50.618;7.024;2022-11-20T06:58:16;64.40;;;31.77;;
27163;SDS011;14685;50.618;7.024;2022-11-20T07:00:44;62.88;;;30.63;;
27163;SDS011;14685;50.618;7.024;2022-11-20T07:03:11;56.30;;;29.17;;
27163;SDS011;14685;50.618;7.024;2022-11-20T07:05:42;57.40;;;29.67;;
27163;SDS011;14685;50.618;7.024;2022-11-20T07:08:11;55.58;;;29.80;;
27163;SDS011;14685;50.618;7.024;2022-11-20T07:10:39;58.65;;;29.13;;
27163;SDS011;14685;50.618;7.024;2022-11-20T07:13:08;55.85;;;28.45;;
27163;SDS011;14685;50.618;7.024;2022-11-20T07:15:35;56.25;;;27.98;;
27163;SDS011;14685;50.618;7.024;2022-11-20T07:18:02;55.78;;;28.58;;
27163;SDS011;14685;50.618;7.024;2022-11-20T07:20:29;53.60;;;28.63;;
27163;SDS011;14685;50.618;7.024;2022-11-20T07:22:56;45.20;;;25.70;;
27163;SDS011;14685;50.618;7.024;2022-11-20T07:25:24;45.53;;;26.13;;
27163;SDS011;14685;50.618;7.024;2022-11-20T07:27:57;49.33;;;26.75;;
27163;SDS011;14685;50.618;7.024;2022-11-20T07:30:25;50.63;;;27.33;;
27163;SDS011;14685;50.618;7.024;2022-11-20T07:32:56;52.40;;;27.08;;
27163;SDS011;14685;50.618;7.024;2022-11-20T07:35:23;45.70;;;25.58;;
27163;SDS011;14685;50.618;7.024;2022-11-20T07:37:52;48.50;;;25.65;;
27163;SDS011;14685;50.618;7.024;2022-11-20T07:40:20;50.13;;;26.80;;
27163;SDS011;14685;50.618;7.024;2022-11-20T07:42:51;43.58;;;24.95;;
27163;SDS011;14685;50.618;7.024;2022-11-20T07:45:20;42.88;;;23.80;;
27163;SDS011;14685;50.618;7.024;2022-11-20T07:47:48;46.63;;;25.52;;
27163;SDS011;14685;50.618;7.024;2022-11-20T07:50:15;41.92;;;24.25;;
27163;SDS011;14685;50.618;7.024;2022-11-20T07:52:43;44.75;;;24.30;;
27163;SDS011;14685;50.618;7.024;2022-11-20T07:55:10;41.35;;;23.65;;
27163;SDS011;14685;50.618;7.024;2022-11-20T07:57:37;42.80;;;24.10;;
27163;SDS011;14685;50.618;7.024;2022-11-20T08:00:04;41.15;;;24.05;;
27163;SDS011;14685;50.618;7.024;2022-11-20T08:02:37;41.00;;;23.83;;
27163;SDS011;14685;50.618;7.024;2022-11-20T08:05:08;43.38;;;24.42;;
27163;SDS011;14685;50.618;7.024;2022-11-20T08:07:36;47.78;;;25.58;;
27163;SDS011;14685;50.618;7.024;2022-11-20T08:10:10;43.17;;;24.27;;
27163;SDS011;14685;50.618;7.024;2022-11-20T08:12:46;40.80;;;24.40;;
27163;SDS011;14685;50.618;7.024;2022-11-20T08:15:34;43.05;;;24.02;;
27163;SDS011;14685;50.618;7.024;2022-11-20T08:18:11;40.67;;;23.60;;
27163;SDS011;14685;50.618;7.024;2022-11-20T08:21:02;36.95;;;21.98;;
27163;SDS011;14685;50.618;7.024;2022-11-20T08:23:30;34.88;;;20.77;;
27163;SDS011;14685;50.618;7.024;2022-11-20T08:25:56;35.17;;;21.20;;
27163;SDS011;14685;50.618;7.024;2022-11-20T08:28:23;39.85;;;22.15;;
27163;SDS011;14685;50.618;7.024;2022-11-20T08:30:50;38.13;;;22.17;;
27163;SDS011;14685;50.618;7.024;2022-11-20T08:33:17;42.90;;;24.48;;
27163;SDS011;14685;50.618;7.024;2022-11-20T08:35:44;39.72;;;22.58;;
27163;SDS011;14685;50.618;7.024;2022-11-20T08:38:11;39.30;;;22.08;;
27163;SDS011;14685;50.618;7.024;2022-11-20T08:40:38;44.28;;;24.25;;
27163;SDS011;14685;50.618;7.024;2022-11-20T08:43:05;45.15;;;23.35;;
27163;SDS011;14685;50.618;7.024;2022-11-20T08:45:32;40.97;;;23.15;;
27163;SDS011;14685;50.618;7.024;2022-11-20T08:48:03;40.03;;;22.48;;
27163;SDS011;14685;50.618;7.024;2022-11-20T08:50:31;45.45;;;24.92;;
27163;SDS011;14685;50.618;7.024;2022-11-20T08:53:05;42.28;;;24.33;;
27163;SDS011;14685;50.618;7.024;2022-11-20T08:55:32;36.10;;;20.30;;
27163;SDS011;14685;50.618;7.024;2022-11-20T08:58:03;41.60;;;23.38;;
27163;SDS011;14685;50.618;7.024;2022-11-20T09:00:30;46.50;;;24.83;;
27163;SDS011;14685;50.618;7.024;2022-11-20T09:02:58;44.90;;;24.77;;
27163;SDS011;14685;50.618;7.024;2022-11-20T09:05:27;46.10;;;23.83;;
27163;SDS011;14685;50.618;7.024;2022-11-20T09:07:58;44.30;;;24.00;;
27163;SDS011;14685;50.618;7.024;2022-11-20T09:10:25;42.72;;;24.40;;
27163;SDS011;14685;50.618;7.024;2022-11-20T09:12:52;42.50;;;22.70;;
27163;SDS011;14685;50.618;7.024;2022-11-20T09:15:22;53.35;;;26.58;;
27163;SDS011;14685;50.618;7.024;2022-11-20T09:17:55;47.28;;;23.65;;
27163;SDS011;14685;50.618;7.024;2022-11-20T09:20:23;39.08;;;21.80;;
27163;SDS011;14685;50.618;7.024;2022-11-20T09:22:50;41.70;;;22.33;;
27163;SDS011;14685;50.618;7.024;2022-11-20T09:25:17;40.10;;;22.52;;
27163;SDS011;14685;50.618;7.024;2022-11-20T09:27:44;44.30;;;24.05;;
27163;SDS011;14685;50.618;7.024;2022-11-20T09:30:15;47.97;;;25.25;;
27163;SDS011;14685;50.618;7.024;2022-11-20T09:32:44;46.03;;;24.98;;
27163;SDS011;14685;50.618;7.024;2022-11-20T09:35:11;95.05;;;48.50;;
27163;SDS011;14685;50.618;7.024;2022-11-20T09:37:38;41.20;;;23.17;;
27163;SDS011;14685;50.618;7.024;2022-11-20T09:40:05;51.05;;;29.60;;
27163;SDS011;14685;50.618;7.024;2022-11-20T09:42:35;42.78;;;23.88;;
27163;SDS011;14685;50.618;7.024;2022-11-20T09:53:58;48.88;;;23.92;;
27163;SDS011;14685;50.618;7.024;2022-11-20T09:56:27;46.38;;;24.77;;
27163;SDS011;14685;50.618;7.024;2022-11-20T09:58:57;46.88;;;25.00;;
27163;SDS011;14685;50.618;7.024;2022-11-20T10:01:32;44.28;;;24.20;;
27163;SDS011;14685;50.618;7.024;2022-11-20T10:04:12;52.10;;;25.55;;
27163;SDS011;14685;50.618;7.024;2022-11-20T10:06:52;46.22;;;24.55;;
27163;SDS011;14685;50.618;7.024;2022-11-20T10:09:58;45.38;;;24.13;;
27163;SDS011;14685;50.618;7.024;2022-11-20T10:15:35;44.70;;;23.80;;
27163;SDS011;14685;50.618;7.024;2022-11-20T10:21:39;42.22;;;21.50;;
27163;SDS011;14685;50.618;7.024;2022-11-20T10:24:42;41.75;;;22.90;;
27163;SDS011;14685;50.618;7.024;2022-11-20T10:30:11;42.92;;;23.73;;
27163;SDS011;14685;50.618;7.024;2022-11-20T10:32:40;43.70;;;22.77;;
27163;SDS011;14685;50.618;7.024;2022-11-20T10:35:24;40.67;;;21.67;;
27163;SDS011;14685;50.618;7.024;2022-11-20T10:37:56;45.25;;;23.92;;
27163;SDS011;14685;50.618;7.024;2022-11-20T10:43:08;45.63;;;24.33;;
27163;SDS011;14685;50.618;7.024;2022-11-20T10:45:56;44.55;;;22.23;;
27163;SDS011;14685;50.618;7.024;2022-11-20T10:48:30;42.88;;;23.48;;
27163;SDS011;14685;50.618;7.024;2022-11-20T10:56:30;45.63;;;21.42;;
27163;SDS011;14685;50.618;7.024;2022-11-20T10:59:38;41.72;;;22.42;;
27163;SDS011;14685;50.618;7.024;2022-11-20T11:02:20;38.22;;;20.77;;
27163;SDS011;14685;50.618;7.024;2022-11-20T11:04:52;38.30;;;20.23;;
27163;SDS011;14685;50.618;7.024;2022-11-20T11:07:27;41.30;;;22.33;;
27163;SDS011;14685;50.618;7.024;2022-11-20T11:10:05;39.47;;;20.83;;
27163;SDS011;14685;50.618;7.024;2022-11-20T11:15:24;44.38;;;23.40;;
27163;SDS011;14685;50.618;7.024;2022-11-20T11:17:51;40.13;;;21.65;;
27163;SDS011;14685;50.618;7.024;2022-11-20T11:20:22;43.95;;;24.45;;
27163;SDS011;14685;50.618;7.024;2022-11-20T11:22:52;43.22;;;23.60;;
27163;SDS011;14685;50.618;7.024;2022-11-20T11:27:54;37.13;;;22.13;;
27163;SDS011;14685;50.618;7.024;2022-11-20T11:30:24;39.78;;;21.55;;
27163;SDS011;14685;50.618;7.024;2022-11-20T11:33:05;39.55;;;22.83;;
27163;SDS011;14685;50.618;7.024;2022-11-20T11:35:38;44.13;;;22.92;;
27163;SDS011;14685;50.618;7.024;2022-11-20T11:38:21;44.45;;;23.75;;
27163;SDS011;14685;50.618;7.024;2022-11-20T11:40:58;39.80;;;21.88;;
27163;SDS011;14685;50.618;7.024;2022-11-20T11:43:32;44.83;;;22.90;;
27163;SDS011;14685;50.618;7.024;2022-11-20T11:49:00;41.17;;;22.65;;
27163;SDS011;14685;50.618;7.024;2022-11-20T11:51:58;44.20;;;24.75;;
27163;SDS011;14685;50.618;7.024;2022-11-20T11:54:52;46.22;;;22.80;;
27163;SDS011;14685;50.618;7.024;2022-11-20T12:00:06;41.75;;;22.80;;
27163;SDS011;14685;50.618;7.024;2022-11-20T12:05:23;34.58;;;19.25;;
27163;SDS011;14685;50.618;7.024;2022-11-20T12:08:12;40.97;;;23.37;;
27163;SDS011;14685;50.618;7.024;2022-11-20T12:10:55;38.85;;;21.83;;
27163;SDS011;14685;50.618;7.024;2022-11-20T12:13:53;41.85;;;23.15;;
27163;SDS011;14685;50.618;7.024;2022-11-20T12:16:24;39.67;;;21.83;;
27163;SDS011;14685;50.618;7.024;2022-11-20T12:18:52;41.20;;;23.30;;
27163;SDS011;14685;50.618;7.024;2022-11-20T12:24:06;41.55;;;24.02;;
27163;SDS011;14685;50.618;7.024;2022-11-20T12:27:21;47.42;;;22.65;;
27163;SDS011;14685;50.618;7.024;2022-11-20T12:30:14;37.30;;;21.40;;
27163;SDS011;14685;50.618;7.024;2022-11-20T12:56:40;34.63;;;18.30;;
27163;SDS011;14685;50.618;7.024;2022-11-20T13:02:23;36.67;;;20.52;;
27163;SDS011;14685;50.618;7.024;2022-11-20T13:05:19;32.83;;;19.33;;
27163;SDS011;14685;50.618;7.024;2022-11-20T13:08:08;31.42;;;19.20;;
27163;SDS011;14685;50.618;7.024;2022-11-20T13:10:50;33.30;;;19.35;;
27163;SDS011;14685;50.618;7.024;2022-11-20T13:14:03;32.15;;;18.80;;
27163;SDS011;14685;50.618;7.024;2022-11-20T13:16:50;29.50;;;17.40;;
27163;SDS011;14685;50.618;7.024;2022-11-20T13:19:18;34.58;;;18.50;;
27163;SDS011;14685;50.618;7.024;2022-11-20T13:21:49;32.17;;;19.63;;
27163;SDS011;14685;50.618;7.024;2022-11-20T13:24:26;30.77;;;18.73;;
27163;SDS011;14685;50.618;7.024;2022-11-20T13:27:03;29.67;;;18.52;;
27163;SDS011;14685;50.618;7.024;2022-11-20T13:29:31;28.45;;;18.02;;
27163;SDS011;14685;50.618;7.024;2022-11-20T13:38:00;28.27;;;17.33;;
27163;SDS011;14685;50.618;7.024;2022-11-20T13:40:28;29.00;;;17.40;;
27163;SDS011;14685;50.618;7.024;2022-11-20T13:43:11;38.78;;;21.00;;
27163;SDS011;14685;50.618;7.024;2022-11-20T13:45:54;35.10;;;20.83;;
27163;SDS011;14685;50.618;7.024;2022-11-20T13:48:30;28.80;;;18.25;;
27163;SDS011;14685;50.618;7.024;2022-11-20T13:51:03;29.60;;;18.67;;
27163;SDS011;14685;50.618;7.024;2022-11-20T13:56:54;29.40;;;17.92;;
27163;SDS011;14685;50.618;7.024;2022-11-20T14:02:33;25.38;;;16.67;;
27163;SDS011;14685;50.618;7.024;2022-11-20T14:05:00;31.52;;;19.20;;
27163;SDS011;14685;50.618;7.024;2022-11-20T14:07:37;28.95;;;18.15;;
27163;SDS011;14685;50.618;7.024;2022-11-20T14:10:20;28.48;;;17.30;;
27163;SDS011;14685;50.618;7.024;2022-11-20T14:12:56;30.40;;;19.30;;
27163;SDS011;14685;50.618;7.024;2022-11-20T14:15:33;29.88;;;19.17;;
27163;SDS011;14685;50.618;7.024;2022-11-20T14:18:28;31.33;;;18.52;;
27163;SDS011;14685;50.618;7.024;2022-11-20T14:20:54;27.95;;;17.17;;
27163;SDS011;14685;50.618;7.024;2022-11-20T14:23:27;27.38;;;17.13;;
27163;SDS011;14685;50.618;7.024;2022-11-20T14:25:56;29.35;;;18.30;;
27163;SDS011;14685;50.618;7.024;2022-11-20T14:28:27;26.63;;;17.75;;
27163;SDS011;14685;50.618;7.024;2022-11-20T14:30:56;28.35;;;17.63;;
27163;SDS011;14685;50.618;7.024;2022-11-20T14:33:25;28.15;;;16.83;;
27163;SDS011;14685;50.618;7.024;2022-11-20T14:35:56;25.35;;;16.60;;
27163;SDS011;14685;50.618;7.024;2022-11-20T14:38:25;26.00;;;16.58;;
27163;SDS011;14685;50.618;7.024;2022-11-20T14:40:54;28.98;;;17.15;;
27163;SDS011;14685;50.618;7.024;2022-11-20T14:43:45;26.13;;;17.13;;
27163;SDS011;14685;50.618;7.024;2022-11-20T14:46:24;25.17;;;16.85;;
27163;SDS011;14685;50.618;7.024;2022-11-20T14:48:56;27.45;;;17.55;;
27163;SDS011;14685;50.618;7.024;2022-11-20T14:51:28;31.05;;;18.65;;
27163;SDS011;14685;50.618;7.024;2022-11-20T14:54:15;28.90;;;17.30;;
27163;SDS011;14685;50.618;7.024;2022-11-20T14:56:59;29.25;;;18.92;;
27163;SDS011;14685;50.618;7.024;2022-11-20T14:59:30;29.92;;;18.85;;
27163;SDS011;14685;50.618;7.024;2022-11-20T15:02:01;22.77;;;13.07;;
27163;SDS011;14685;50.618;7.024;2022-11-20T15:04:31;18.80;;;10.70;;
27163;SDS011;14685;50.618;7.024;2022-11-20T15:06:59;3.28;;;1.70;;
27163;SDS011;14685;50.618;7.024;2022-11-20T15:09:27;12.38;;;6.13;;
27163;SDS011;14685;50.618;7.024;2022-11-20T15:11:58;4.63;;;1.65;;
27163;SDS011;14685;50.618;7.024;2022-11-20T15:14:28;4.05;;;1.55;;
27163;SDS011;14685;50.618;7.024;2022-11-20T15:16:56;1.85;;;1.10;;
27163;SDS011;14685;50.618;7.024;2022-11-20T15:19:24;3.63;;;1.40;;
27163;SDS011;14685;50.618;7.024;2022-11-20T15:21:53;2.72;;;1.40;;
27163;SDS011;14685;50.618;7.024;2022-11-20T15:24:20;3.58;;;1.23;;
27163;SDS011;14685;50.618;7.024;2022-11-20T15:26:47;3.30;;;1.48;;
27163;SDS011;14685;50.618;7.024;2022-11-20T15:29:15;2.45;;;1.30;;
27163;SDS011;14685;50.618;7.024;2022-11-20T15:31:45;1.75;;;1.50;;
27163;SDS011;14685;50.618;7.024;2022-11-20T15:34:12;6.43;;;2.10;;
27163;SDS011;14685;50.618;7.024;2022-11-20T15:36:42;6.40;;;1.80;;
27163;SDS011;14685;50.618;7.024;2022-11-20T15:39:10;4.32;;;1.58;;
27163;SDS011;14685;50.618;7.024;2022-11-20T15:41:38;2.47;;;1.55;;
27163;SDS011;14685;50.618;7.024;2022-11-20T15:44:05;6.57;;;2.80;;
27163;SDS011;14685;50.618;7.024;2022-11-20T15:46:38;3.22;;;2.42;;
27163;SDS011;14685;50.618;7.024;2022-11-20T15:49:10;4.35;;;3.20;;
27163;SDS011;14685;50.618;7.024;2022-11-20T15:51:41;4.57;;;3.40;;
27163;SDS011;14685;50.618;7.024;2022-11-20T15:54:11;7.40;;;4.30;;
27163;SDS011;14685;50.618;7.024;2022-11-20T15:56:43;5.22;;;3.45;;
27163;SDS011;14685;50.618;7.024;2022-11-20T15:59:21;5.95;;;3.08;;
27163;SDS011;14685;50.618;7.024;2022-11-20T16:01:47;4.10;;;2.65;;
27163;SDS011;14685;50.618;7.024;2022-11-20T16:04:17;5.75;;;2.75;;
27163;SDS011;14685;50.618;7.024;2022-11-20T16:06:44;4.32;;;2.55;;
27163;SDS011;14685;50.618;7.024;2022-11-20T16:09:11;6.00;;;2.53;;
27163;SDS011;14685;50.618;7.024;2022-11-20T16:11:44;7.67;;;2.37;;
27163;SDS011;14685;50.618;7.024;2022-11-20T16:14:11;5.32;;;2.90;;
27163;SDS011;14685;50.618;7.024;2022-11-20T16:16:57;5.63;;;2.88;;
27163;SDS011;14685;50.618;7.024;2022-11-20T16:19:26;4.45;;;3.05;;
27163;SDS011;14685;50.618;7.024;2022-11-20T16:21:53;5.95;;;2.60;;
27163;SDS011;14685;50.618;7.024;2022-11-20T16:24:27;5.43;;;2.83;;
27163;SDS011;14685;50.618;7.024;2022-11-20T16:26:56;4.88;;;2.42;;